sensor_id;sensor_type;location;lat;lon;timestamp;pressure;altitude;pressure_sealevel;temperature;humidity
49645;BME280;36494;50.730;-1.932;2022-09-09T00:01:37;99806.47;;;15.65;100.00
49645;BME280;36494;50.730;-1.932;2022-09-09T00:04:03;99814.17;;;15.60;100.00
49645;BME280;36494;50.730;-1.932;2022-09-09T00:06:28;99812.54;;;15.63;100.00
49645;BME280;36494;50.730;-1.932;2022-09-09T00:08:56;99816.28;;;15.60;100.00
49645;BME280;36494;50.730;-1.932;2022-09-09T00:11:17;99818.06;;;15.62;100.00
49645;BME280;36494;50.730;-1.932;2022-09-09T00:13:43;99820.31;;;15.60;100.00
49645;BME280;36494;50.730;-1.932;2022-09-09T00:16:10;99819.68;;;15.59;100.00
49645;BME280;36494;50.730;-1.932;2022-09-09T00:18:36;99821.32;;;15.57;100.00
49645;BME280;36494;50.730;-1.932;2022-09-09T00:20:58;99820.87;;;15.57;100.00
49645;BME280;36494;50.730;-1.932;2022-09-09T00:23:25;99819.90;;;15.58;100.00
49645;BME280;36494;50.730;-1.932;2022-09-09T00:25:51;99820.08;;;15.57;100.00
49645;BME280;36494;50.730;-1.932;2022-09-09T00:28:18;99819.55;;;15.56;100.00
49645;BME280;36494;50.730;-1.932;2022-09-09T00:30:43;99828.04;;;15.56;100.00
49645;BME280;36494;50.730;-1.932;2022-09-09T00:33:09;99821.90;;;15.50;100.00
49645;BME280;36494;50.730;-1.932;2022-09-09T00:35:30;99827.50;;;15.48;100.00
49645;BME280;36494;50.730;-1.932;2022-09-09T00:37:56;99827.87;;;15.55;100.00
49645;BME280;36494;50.730;-1.932;2022-09-09T00:40:26;99828.90;;;15.56;100.00
49645;BME280;36494;50.730;-1.932;2022-09-09T00:42:44;99829.58;;;15.59;100.00
49645;BME280;36494;50.730;-1.932;2022-09-09T00:45:19;99833.88;;;15.57;100.00
49645;BME280;36494;50.730;-1.932;2022-09-09T00:47:40;99835.95;;;15.56;100.00
49645;BME280;36494;50.730;-1.932;2022-09-09T00:50:03;99838.16;;;15.59;100.00
49645;BME280;36494;50.730;-1.932;2022-09-09T00:52:32;99843.21;;;15.58;100.00
49645;BME280;36494;50.730;-1.932;2022-09-09T00:54:55;99845.27;;;15.62;100.00
49645;BME280;36494;50.730;-1.932;2022-09-09T00:57:25;99844.46;;;15.64;100.00
49645;BME280;36494;50.730;-1.932;2022-09-09T00:59:47;99845.09;;;15.60;100.00
49645;BME280;36494;50.730;-1.932;2022-09-09T01:02:13;99849.66;;;15.61;100.00
49645;BME280;36494;50.730;-1.932;2022-09-09T01:04:34;99853.19;;;15.64;100.00
49645;BME280;36494;50.730;-1.932;2022-09-09T01:07:03;99852.59;;;15.63;100.00
49645;BME280;36494;50.730;-1.932;2022-09-09T01:09:23;99857.08;;;15.61;100.00
49645;BME280;36494;50.730;-1.932;2022-09-09T01:11:57;99858.60;;;15.63;100.00
49645;BME280;36494;50.730;-1.932;2022-09-09T01:14:20;99855.48;;;15.64;100.00
49645;BME280;36494;50.730;-1.932;2022-09-09T01:16:38;99862.01;;;15.64;100.00
49645;BME280;36494;50.730;-1.932;2022-09-09T01:19:07;99861.28;;;15.62;100.00
49645;BME280;36494;50.730;-1.932;2022-09-09T01:21:36;99861.28;;;15.59;100.00
49645;BME280;36494;50.730;-1.932;2022-09-09T01:24:08;99862.60;;;15.59;100.00
49645;BME280;36494;50.730;-1.932;2022-09-09T01:26:25;99866.48;;;15.58;100.00
49645;BME280;36494;50.730;-1.932;2022-09-09T01:28:47;99872.61;;;15.56;100.00
49645;BME280;36494;50.730;-1.932;2022-09-09T01:31:14;99880.31;;;15.56;100.00
49645;BME280;36494;50.730;-1.932;2022-09-09T01:33:35;99884.36;;;15.54;100.00
49645;BME280;36494;50.730;-1.932;2022-09-09T01:36:06;99883.83;;;15.52;100.00
49645;BME280;36494;50.730;-1.932;2022-09-09T01:38:28;99886.09;;;15.44;100.00
49645;BME280;36494;50.730;-1.932;2022-09-09T01:40:52;99882.07;;;15.41;100.00
49645;BME280;36494;50.730;-1.932;2022-09-09T01:43:17;99891.38;;;15.40;100.00
49645;BME280;36494;50.730;-1.932;2022-09-09T01:45:42;99897.52;;;15.39;100.00
49645;BME280;36494;50.730;-1.932;2022-09-09T01:48:07;99899.45;;;15.34;100.00
49645;BME280;36494;50.730;-1.932;2022-09-09T01:50:33;99897.29;;;15.35;100.00
49645;BME280;36494;50.730;-1.932;2022-09-09T01:52:59;99900.38;;;15.29;100.00
49645;BME280;36494;50.730;-1.932;2022-09-09T01:55:29;99905.01;;;15.27;100.00
49645;BME280;36494;50.730;-1.932;2022-09-09T01:57:54;99899.34;;;15.29;100.00
49645;BME280;36494;50.730;-1.932;2022-09-09T02:00:15;99901.61;;;15.28;100.00
49645;BME280;36494;50.730;-1.932;2022-09-09T02:02:46;99910.36;;;15.24;100.00
49645;BME280;36494;50.730;-1.932;2022-09-09T02:05:15;99910.93;;;15.21;100.00
49645;BME280;36494;50.730;-1.932;2022-09-09T02:07:37;99913.73;;;15.20;100.00
49645;BME280;36494;50.730;-1.932;2022-09-09T02:10:00;99916.47;;;15.12;100.00
49645;BME280;36494;50.730;-1.932;2022-09-09T02:12:21;99912.94;;;15.14;100.00
49645;BME280;36494;50.730;-1.932;2022-09-09T02:14:50;99914.74;;;15.15;100.00
49645;BME280;36494;50.730;-1.932;2022-09-09T02:17:14;99907.97;;;15.12;100.00
49645;BME280;36494;50.730;-1.932;2022-09-09T02:19:39;99906.79;;;15.14;100.00
49645;BME280;36494;50.730;-1.932;2022-09-09T02:22:02;99911.11;;;15.14;100.00
49645;BME280;36494;50.730;-1.932;2022-09-09T02:24:29;99910.78;;;15.10;100.00
49645;BME280;36494;50.730;-1.932;2022-09-09T02:26:53;99907.46;;;15.14;100.00
49645;BME280;36494;50.730;-1.932;2022-09-09T02:29:19;99905.82;;;15.11;100.00
49645;BME280;36494;50.730;-1.932;2022-09-09T02:31:44;99904.66;;;15.09;100.00
49645;BME280;36494;50.730;-1.932;2022-09-09T02:34:09;99906.06;;;15.10;100.00
49645;BME280;36494;50.730;-1.932;2022-09-09T02:36:34;99908.50;;;15.11;100.00
49645;BME280;36494;50.730;-1.932;2022-09-09T02:38:59;99910.09;;;15.09;100.00
49645;BME280;36494;50.730;-1.932;2022-09-09T02:41:26;99915.17;;;15.07;100.00
49645;BME280;36494;50.730;-1.932;2022-09-09T02:43:49;99915.94;;;15.06;100.00
49645;BME280;36494;50.730;-1.932;2022-09-09T02:46:24;99918.82;;;15.05;100.00
49645;BME280;36494;50.730;-1.932;2022-09-09T02:48:46;99923.84;;;15.04;100.00
49645;BME280;36494;50.730;-1.932;2022-09-09T02:51:08;99926.00;;;15.01;100.00
49645;BME280;36494;50.730;-1.932;2022-09-09T02:53:33;99928.67;;;15.02;100.00
49645;BME280;36494;50.730;-1.932;2022-09-09T02:55:57;99932.47;;;15.01;100.00
49645;BME280;36494;50.730;-1.932;2022-09-09T02:58:21;99930.84;;;14.99;100.00
49645;BME280;36494;50.730;-1.932;2022-09-09T03:00:47;99933.57;;;15.02;100.00
49645;BME280;36494;50.730;-1.932;2022-09-09T03:03:11;99934.46;;;15.00;100.00
49645;BME280;36494;50.730;-1.932;2022-09-09T03:05:36;99937.20;;;15.00;100.00
49645;BME280;36494;50.730;-1.932;2022-09-09T03:08:02;99941.47;;;14.95;100.00
49645;BME280;36494;50.730;-1.932;2022-09-09T03:10:27;99942.63;;;14.95;100.00
49645;BME280;36494;50.730;-1.932;2022-09-09T03:12:52;99940.51;;;14.96;100.00
49645;BME280;36494;50.730;-1.932;2022-09-09T03:15:17;99941.98;;;14.95;100.00
49645;BME280;36494;50.730;-1.932;2022-09-09T03:17:43;99943.66;;;14.91;100.00
49645;BME280;36494;50.730;-1.932;2022-09-09T03:20:08;99947.80;;;14.90;100.00
49645;BME280;36494;50.730;-1.932;2022-09-09T03:22:34;99943.41;;;14.90;100.00
49645;BME280;36494;50.730;-1.932;2022-09-09T03:24:59;99945.31;;;14.93;100.00
49645;BME280;36494;50.730;-1.932;2022-09-09T03:27:25;99942.53;;;14.90;100.00
49645;BME280;36494;50.730;-1.932;2022-09-09T03:29:50;99942.48;;;14.92;100.00
49645;BME280;36494;50.730;-1.932;2022-09-09T03:32:15;99943.74;;;14.93;100.00
49645;BME280;36494;50.730;-1.932;2022-09-09T03:34:40;99948.03;;;14.91;100.00
49645;BME280;36494;50.730;-1.932;2022-09-09T03:37:06;99955.34;;;14.92;100.00
49645;BME280;36494;50.730;-1.932;2022-09-09T03:39:31;99959.03;;;14.91;100.00
49645;BME280;36494;50.730;-1.932;2022-09-09T03:41:56;99962.48;;;14.91;100.00
49645;BME280;36494;50.730;-1.932;2022-09-09T03:44:22;99966.55;;;14.89;100.00
49645;BME280;36494;50.730;-1.932;2022-09-09T03:46:47;99968.57;;;14.94;100.00
49645;BME280;36494;50.730;-1.932;2022-09-09T03:49:13;99969.40;;;14.96;100.00
49645;BME280;36494;50.730;-1.932;2022-09-09T03:51:37;99973.07;;;14.96;100.00
49645;BME280;36494;50.730;-1.932;2022-09-09T03:54:03;99977.13;;;14.97;100.00
49645;BME280;36494;50.730;-1.932;2022-09-09T03:56:28;99975.27;;;14.96;100.00
49645;BME280;36494;50.730;-1.932;2022-09-09T03:58:53;99974.14;;;14.97;100.00
49645;BME280;36494;50.730;-1.932;2022-09-09T04:01:19;99977.68;;;14.99;100.00
49645;BME280;36494;50.730;-1.932;2022-09-09T04:03:44;99980.95;;;15.00;100.00
49645;BME280;36494;50.730;-1.932;2022-09-09T04:06:11;99980.52;;;15.03;100.00
49645;BME280;36494;50.730;-1.932;2022-09-09T04:08:35;99981.03;;;15.03;100.00
49645;BME280;36494;50.730;-1.932;2022-09-09T04:11:01;99977.73;;;15.04;100.00
49645;BME280;36494;50.730;-1.932;2022-09-09T04:13:26;99983.38;;;15.04;100.00
49645;BME280;36494;50.730;-1.932;2022-09-09T04:15:51;99984.55;;;15.06;100.00
49645;BME280;36494;50.730;-1.932;2022-09-09T04:18:16;99984.03;;;15.03;100.00
49645;BME280;36494;50.730;-1.932;2022-09-09T04:20:41;99989.26;;;15.03;100.00
49645;BME280;36494;50.730;-1.932;2022-09-09T04:23:07;99990.79;;;15.05;100.00
49645;BME280;36494;50.730;-1.932;2022-09-09T04:25:32;99993.19;;;15.08;100.00
49645;BME280;36494;50.730;-1.932;2022-09-09T04:27:58;99991.99;;;15.07;100.00
49645;BME280;36494;50.730;-1.932;2022-09-09T04:30:23;99993.84;;;15.09;100.00
49645;BME280;36494;50.730;-1.932;2022-09-09T04:32:47;99998.46;;;15.07;100.00
49645;BME280;36494;50.730;-1.932;2022-09-09T04:35:13;99998.85;;;15.06;100.00
49645;BME280;36494;50.730;-1.932;2022-09-09T04:37:39;100005.17;;;15.12;100.00
49645;BME280;36494;50.730;-1.932;2022-09-09T04:40:05;100007.05;;;15.13;100.00
49645;BME280;36494;50.730;-1.932;2022-09-09T04:42:29;100010.80;;;15.13;100.00
49645;BME280;36494;50.730;-1.932;2022-09-09T04:44:55;100010.43;;;15.08;100.00
49645;BME280;36494;50.730;-1.932;2022-09-09T04:47:20;100014.35;;;15.09;100.00
49645;BME280;36494;50.730;-1.932;2022-09-09T04:49:45;100013.79;;;15.08;100.00
49645;BME280;36494;50.730;-1.932;2022-09-09T04:52:10;100013.45;;;15.07;100.00
49645;BME280;36494;50.730;-1.932;2022-09-09T04:54:36;100015.71;;;15.05;100.00
49645;BME280;36494;50.730;-1.932;2022-09-09T04:57:01;100019.70;;;15.05;100.00
49645;BME280;36494;50.730;-1.932;2022-09-09T04:59:26;100023.37;;;15.05;100.00
49645;BME280;36494;50.730;-1.932;2022-09-09T05:01:52;100027.78;;;15.05;100.00
49645;BME280;36494;50.730;-1.932;2022-09-09T05:04:17;100030.04;;;15.03;100.00
49645;BME280;36494;50.730;-1.932;2022-09-09T05:06:42;100030.71;;;15.03;100.00
49645;BME280;36494;50.730;-1.932;2022-09-09T05:09:08;100033.57;;;14.97;100.00
49645;BME280;36494;50.730;-1.932;2022-09-09T05:11:34;100034.38;;;14.91;100.00
49645;BME280;36494;50.730;-1.932;2022-09-09T05:13:58;100035.31;;;14.91;100.00
49645;BME280;36494;50.730;-1.932;2022-09-09T05:16:23;100035.07;;;14.86;100.00
49645;BME280;36494;50.730;-1.932;2022-09-09T05:18:49;100038.34;;;14.88;100.00
49645;BME280;36494;50.730;-1.932;2022-09-09T05:21:15;100036.88;;;14.88;100.00
49645;BME280;36494;50.730;-1.932;2022-09-09T05:23:40;100041.44;;;14.87;100.00
49645;BME280;36494;50.730;-1.932;2022-09-09T05:26:05;100047.70;;;14.82;100.00
49645;BME280;36494;50.730;-1.932;2022-09-09T05:28:31;100051.45;;;14.84;100.00
49645;BME280;36494;50.730;-1.932;2022-09-09T05:30:57;100049.34;;;14.80;100.00
49645;BME280;36494;50.730;-1.932;2022-09-09T05:33:21;100052.45;;;14.78;100.00
49645;BME280;36494;50.730;-1.932;2022-09-09T05:35:46;100054.88;;;14.81;100.00
49645;BME280;36494;50.730;-1.932;2022-09-09T05:38:11;100056.28;;;14.74;100.00
49645;BME280;36494;50.730;-1.932;2022-09-09T05:40:36;100062.57;;;14.76;100.00
49645;BME280;36494;50.730;-1.932;2022-09-09T05:43:02;100062.79;;;14.71;100.00
49645;BME280;36494;50.730;-1.932;2022-09-09T05:45:27;100065.92;;;14.67;100.00
49645;BME280;36494;50.730;-1.932;2022-09-09T05:47:53;100064.98;;;14.64;100.00
49645;BME280;36494;50.730;-1.932;2022-09-09T05:50:18;100065.92;;;14.60;100.00
49645;BME280;36494;50.730;-1.932;2022-09-09T05:52:43;100065.55;;;14.59;100.00
49645;BME280;36494;50.730;-1.932;2022-09-09T05:55:09;100074.10;;;14.56;100.00
49645;BME280;36494;50.730;-1.932;2022-09-09T05:57:35;100076.08;;;14.54;100.00
49645;BME280;36494;50.730;-1.932;2022-09-09T06:00:00;100075.54;;;14.56;100.00
49645;BME280;36494;50.730;-1.932;2022-09-09T06:02:25;100079.06;;;14.57;100.00
49645;BME280;36494;50.730;-1.932;2022-09-09T06:04:50;100084.62;;;14.50;100.00
49645;BME280;36494;50.730;-1.932;2022-09-09T06:07:16;100091.04;;;14.53;100.00
49645;BME280;36494;50.730;-1.932;2022-09-09T06:09:42;100091.69;;;14.49;100.00
49645;BME280;36494;50.730;-1.932;2022-09-09T06:12:07;100097.92;;;14.48;100.00
49645;BME280;36494;50.730;-1.932;2022-09-09T06:14:32;100101.36;;;14.48;100.00
49645;BME280;36494;50.730;-1.932;2022-09-09T06:16:58;100101.15;;;14.43;100.00
49645;BME280;36494;50.730;-1.932;2022-09-09T06:19:23;100104.75;;;14.43;100.00
49645;BME280;36494;50.730;-1.932;2022-09-09T06:21:48;100109.77;;;14.45;100.00
49645;BME280;36494;50.730;-1.932;2022-09-09T06:24:13;100112.14;;;14.46;100.00
49645;BME280;36494;50.730;-1.932;2022-09-09T06:26:39;100112.13;;;14.45;100.00
49645;BME280;36494;50.730;-1.932;2022-09-09T06:29:04;100118.36;;;14.46;100.00
49645;BME280;36494;50.730;-1.932;2022-09-09T06:31:32;100118.82;;;14.42;100.00
49645;BME280;36494;50.730;-1.932;2022-09-09T06:33:56;100122.72;;;14.45;100.00
49645;BME280;36494;50.730;-1.932;2022-09-09T06:36:22;100130.72;;;14.42;100.00
49645;BME280;36494;50.730;-1.932;2022-09-09T06:38:46;100132.86;;;14.47;100.00
49645;BME280;36494;50.730;-1.932;2022-09-09T06:41:13;100138.33;;;14.42;100.00
49645;BME280;36494;50.730;-1.932;2022-09-09T06:43:36;100137.23;;;14.48;100.00
49645;BME280;36494;50.730;-1.932;2022-09-09T06:46:03;100143.59;;;14.47;100.00
49645;BME280;36494;50.730;-1.932;2022-09-09T06:48:27;100144.60;;;14.49;100.00
49645;BME280;36494;50.730;-1.932;2022-09-09T06:51:01;100147.64;;;14.46;100.00
49645;BME280;36494;50.730;-1.932;2022-09-09T06:53:17;100150.00;;;14.51;100.00
49645;BME280;36494;50.730;-1.932;2022-09-09T06:55:43;100152.32;;;14.54;100.00
49645;BME280;36494;50.730;-1.932;2022-09-09T06:58:08;100149.78;;;14.52;100.00
49645;BME280;36494;50.730;-1.932;2022-09-09T07:00:33;100151.86;;;14.57;100.00
49645;BME280;36494;50.730;-1.932;2022-09-09T07:02:59;100152.04;;;14.58;100.00
49645;BME280;36494;50.730;-1.932;2022-09-09T07:05:24;100152.35;;;14.58;100.00
49645;BME280;36494;50.730;-1.932;2022-09-09T07:07:50;100153.88;;;14.61;100.00
49645;BME280;36494;50.730;-1.932;2022-09-09T07:10:15;100162.66;;;14.56;100.00
49645;BME280;36494;50.730;-1.932;2022-09-09T07:12:40;100167.32;;;14.56;100.00
49645;BME280;36494;50.730;-1.932;2022-09-09T07:15:06;100166.83;;;14.58;100.00
49645;BME280;36494;50.730;-1.932;2022-09-09T07:17:31;100165.94;;;14.57;100.00
49645;BME280;36494;50.730;-1.932;2022-09-09T07:19:56;100167.13;;;14.64;100.00
49645;BME280;36494;50.730;-1.932;2022-09-09T07:22:21;100171.73;;;14.70;100.00
49645;BME280;36494;50.730;-1.932;2022-09-09T07:24:47;100176.76;;;14.75;100.00
49645;BME280;36494;50.730;-1.932;2022-09-09T07:27:12;100174.21;;;14.78;100.00
49645;BME280;36494;50.730;-1.932;2022-09-09T07:29:37;100176.80;;;14.83;100.00
49645;BME280;36494;50.730;-1.932;2022-09-09T07:32:03;100175.28;;;14.82;100.00
49645;BME280;36494;50.730;-1.932;2022-09-09T07:34:28;100179.43;;;14.86;100.00
49645;BME280;36494;50.730;-1.932;2022-09-09T07:36:53;100183.99;;;14.91;100.00
49645;BME280;36494;50.730;-1.932;2022-09-09T07:39:18;100182.06;;;14.95;100.00
49645;BME280;36494;50.730;-1.932;2022-09-09T07:41:45;100183.51;;;14.96;100.00
49645;BME280;36494;50.730;-1.932;2022-09-09T07:44:11;100187.09;;;15.02;100.00
49645;BME280;36494;50.730;-1.932;2022-09-09T07:46:35;100185.36;;;15.06;100.00
49645;BME280;36494;50.730;-1.932;2022-09-09T07:48:59;100188.38;;;15.10;100.00
49645;BME280;36494;50.730;-1.932;2022-09-09T07:51:27;100194.86;;;15.16;100.00
49645;BME280;36494;50.730;-1.932;2022-09-09T07:53:52;100195.59;;;15.20;100.00
49645;BME280;36494;50.730;-1.932;2022-09-09T07:56:17;100195.87;;;15.29;100.00
49645;BME280;36494;50.730;-1.932;2022-09-09T07:58:41;100193.48;;;15.38;100.00
49645;BME280;36494;50.730;-1.932;2022-09-09T08:01:08;100192.61;;;15.50;100.00
49645;BME280;36494;50.730;-1.932;2022-09-09T08:03:32;100195.60;;;15.58;100.00
49645;BME280;36494;50.730;-1.932;2022-09-09T08:06:00;100193.62;;;15.61;100.00
49645;BME280;36494;50.730;-1.932;2022-09-09T08:08:22;100194.62;;;15.68;100.00
49645;BME280;36494;50.730;-1.932;2022-09-09T08:10:48;100198.29;;;15.69;100.00
49645;BME280;36494;50.730;-1.932;2022-09-09T08:13:13;100200.75;;;15.70;100.00
49645;BME280;36494;50.730;-1.932;2022-09-09T08:15:38;100204.16;;;15.76;100.00
49645;BME280;36494;50.730;-1.932;2022-09-09T08:18:03;100210.79;;;15.79;100.00
49645;BME280;36494;50.730;-1.932;2022-09-09T08:20:29;100211.27;;;15.83;100.00
49645;BME280;36494;50.730;-1.932;2022-09-09T08:22:55;100212.43;;;15.87;100.00
49645;BME280;36494;50.730;-1.932;2022-09-09T08:25:20;100211.38;;;15.92;100.00
49645;BME280;36494;50.730;-1.932;2022-09-09T08:27:45;100210.81;;;15.92;100.00
49645;BME280;36494;50.730;-1.932;2022-09-09T08:30:11;100210.43;;;15.98;100.00
49645;BME280;36494;50.730;-1.932;2022-09-09T08:32:36;100214.79;;;16.02;100.00
49645;BME280;36494;50.730;-1.932;2022-09-09T08:35:01;100213.00;;;16.04;100.00
49645;BME280;36494;50.730;-1.932;2022-09-09T08:37:26;100217.83;;;16.06;100.00
49645;BME280;36494;50.730;-1.932;2022-09-09T08:39:51;100215.57;;;16.06;100.00
49645;BME280;36494;50.730;-1.932;2022-09-09T08:42:26;100220.80;;;16.08;100.00
49645;BME280;36494;50.730;-1.932;2022-09-09T08:44:54;100226.56;;;16.17;100.00
49645;BME280;36494;50.730;-1.932;2022-09-09T08:47:15;100232.01;;;16.15;100.00
49645;BME280;36494;50.730;-1.932;2022-09-09T08:49:46;100229.67;;;16.21;100.00
49645;BME280;36494;50.730;-1.932;2022-09-09T08:52:00;100233.28;;;16.27;100.00
49645;BME280;36494;50.730;-1.932;2022-09-09T08:54:30;100231.71;;;16.26;100.00
49645;BME280;36494;50.730;-1.932;2022-09-09T08:56:50;100235.43;;;16.33;100.00
49645;BME280;36494;50.730;-1.932;2022-09-09T08:59:17;100235.74;;;16.37;100.00
49645;BME280;36494;50.730;-1.932;2022-09-09T09:01:48;100238.01;;;16.40;100.00
49645;BME280;36494;50.730;-1.932;2022-09-09T09:04:14;100238.38;;;16.42;100.00
49645;BME280;36494;50.730;-1.932;2022-09-09T09:06:42;100243.59;;;16.41;100.00
49645;BME280;36494;50.730;-1.932;2022-09-09T09:09:02;100245.35;;;16.44;100.00
49645;BME280;36494;50.730;-1.932;2022-09-09T09:11:23;100252.72;;;16.44;100.00
49645;BME280;36494;50.730;-1.932;2022-09-09T09:13:52;100253.43;;;16.45;100.00
49645;BME280;36494;50.730;-1.932;2022-09-09T09:16:19;100256.80;;;16.49;100.00
49645;BME280;36494;50.730;-1.932;2022-09-09T09:18:38;100261.20;;;16.50;100.00
49645;BME280;36494;50.730;-1.932;2022-09-09T09:21:08;100266.14;;;16.56;100.00
49645;BME280;36494;50.730;-1.932;2022-09-09T09:23:34;100262.54;;;16.57;100.00
49645;BME280;36494;50.730;-1.932;2022-09-09T09:25:58;100260.72;;;16.57;100.00
49645;BME280;36494;50.730;-1.932;2022-09-09T09:28:23;100263.59;;;16.68;100.00
49645;BME280;36494;50.730;-1.932;2022-09-09T09:30:49;100269.89;;;16.77;100.00
49645;BME280;36494;50.730;-1.932;2022-09-09T09:33:15;100267.66;;;16.84;100.00
49645;BME280;36494;50.730;-1.932;2022-09-09T09:35:36;100264.06;;;16.92;100.00
49645;BME280;36494;50.730;-1.932;2022-09-09T09:38:01;100267.29;;;16.96;100.00
49645;BME280;36494;50.730;-1.932;2022-09-09T09:40:27;100271.45;;;16.96;100.00
49645;BME280;36494;50.730;-1.932;2022-09-09T09:42:54;100278.80;;;17.04;100.00
49645;BME280;36494;50.730;-1.932;2022-09-09T09:45:25;100286.06;;;16.89;100.00
49645;BME280;36494;50.730;-1.932;2022-09-09T09:47:42;100294.52;;;16.83;100.00
49645;BME280;36494;50.730;-1.932;2022-09-09T09:50:17;100295.23;;;16.81;100.00
49645;BME280;36494;50.730;-1.932;2022-09-09T09:52:34;100297.23;;;16.87;100.00
49645;BME280;36494;50.730;-1.932;2022-09-09T09:54:59;100301.14;;;16.76;100.00
49645;BME280;36494;50.730;-1.932;2022-09-09T09:57:26;100305.07;;;16.90;100.00
49645;BME280;36494;50.730;-1.932;2022-09-09T10:00:00;100304.49;;;16.88;100.00
49645;BME280;36494;50.730;-1.932;2022-09-09T10:02:18;100307.45;;;16.84;100.00
49645;BME280;36494;50.730;-1.932;2022-09-09T10:04:40;100310.34;;;16.75;100.00
49645;BME280;36494;50.730;-1.932;2022-09-09T10:07:10;100310.59;;;16.74;100.00
49645;BME280;36494;50.730;-1.932;2022-09-09T10:09:31;100314.18;;;16.79;100.00
49645;BME280;36494;50.730;-1.932;2022-09-09T10:12:04;100314.73;;;16.83;100.00
49645;BME280;36494;50.730;-1.932;2022-09-09T10:14:24;100318.48;;;16.87;100.00
49645;BME280;36494;50.730;-1.932;2022-09-09T10:16:56;100317.14;;;16.97;100.00
49645;BME280;36494;50.730;-1.932;2022-09-09T10:19:15;100326.30;;;17.08;100.00
49645;BME280;36494;50.730;-1.932;2022-09-09T10:21:48;100322.24;;;17.11;100.00
49645;BME280;36494;50.730;-1.932;2022-09-09T10:24:15;100321.66;;;17.11;100.00
49645;BME280;36494;50.730;-1.932;2022-09-09T10:26:35;100323.16;;;17.07;100.00
49645;BME280;36494;50.730;-1.932;2022-09-09T10:29:04;100324.39;;;16.97;100.00
49645;BME280;36494;50.730;-1.932;2022-09-09T10:31:24;100324.69;;;17.07;100.00
49645;BME280;36494;50.730;-1.932;2022-09-09T10:33:50;100328.18;;;17.04;100.00
49645;BME280;36494;50.730;-1.932;2022-09-09T10:36:13;100326.96;;;17.03;100.00
49645;BME280;36494;50.730;-1.932;2022-09-09T10:38:39;100328.70;;;16.90;100.00
49645;BME280;36494;50.730;-1.932;2022-09-09T10:41:09;100334.08;;;17.04;100.00
49645;BME280;36494;50.730;-1.932;2022-09-09T10:43:36;100331.65;;;17.06;100.00
49645;BME280;36494;50.730;-1.932;2022-09-09T10:45:58;100333.60;;;17.15;100.00
49645;BME280;36494;50.730;-1.932;2022-09-09T10:48:27;100336.62;;;17.09;100.00
49645;BME280;36494;50.730;-1.932;2022-09-09T10:50:48;100336.01;;;17.09;100.00
49645;BME280;36494;50.730;-1.932;2022-09-09T10:53:13;100340.84;;;17.10;100.00
49645;BME280;36494;50.730;-1.932;2022-09-09T10:55:37;100359.97;;;17.00;100.00
49645;BME280;36494;50.730;-1.932;2022-09-09T10:57:58;100361.98;;;16.75;100.00
49645;BME280;36494;50.730;-1.932;2022-09-09T11:00:24;100369.96;;;16.39;100.00
49645;BME280;36494;50.730;-1.932;2022-09-09T11:02:52;100362.59;;;16.22;100.00
49645;BME280;36494;50.730;-1.932;2022-09-09T11:05:17;100360.38;;;16.30;100.00
49645;BME280;36494;50.730;-1.932;2022-09-09T11:07:41;100365.69;;;16.45;100.00
49645;BME280;36494;50.730;-1.932;2022-09-09T11:10:17;100370.46;;;16.69;100.00
49645;BME280;36494;50.730;-1.932;2022-09-09T11:12:30;100370.61;;;16.74;100.00
49645;BME280;36494;50.730;-1.932;2022-09-09T11:14:59;100371.27;;;16.74;100.00
49645;BME280;36494;50.730;-1.932;2022-09-09T11:17:23;100376.11;;;16.75;100.00
49645;BME280;36494;50.730;-1.932;2022-09-09T11:19:45;100376.19;;;16.73;100.00
49645;BME280;36494;50.730;-1.932;2022-09-09T11:22:17;100378.97;;;16.64;100.00
49645;BME280;36494;50.730;-1.932;2022-09-09T11:24:39;100376.35;;;16.55;100.00
49645;BME280;36494;50.730;-1.932;2022-09-09T11:27:06;100382.90;;;16.35;100.00
49645;BME280;36494;50.730;-1.932;2022-09-09T11:29:44;100375.37;;;16.26;100.00
49645;BME280;36494;50.730;-1.932;2022-09-09T11:32:02;100377.27;;;16.30;100.00
49645;BME280;36494;50.730;-1.932;2022-09-09T11:34:27;100380.17;;;16.38;100.00
49645;BME280;36494;50.730;-1.932;2022-09-09T11:37:00;100383.50;;;16.42;100.00
49645;BME280;36494;50.730;-1.932;2022-09-09T11:39:23;100390.19;;;16.51;100.00
49645;BME280;36494;50.730;-1.932;2022-09-09T11:41:35;100391.23;;;16.56;100.00
49645;BME280;36494;50.730;-1.932;2022-09-09T11:43:58;100395.57;;;16.64;100.00
49645;BME280;36494;50.730;-1.932;2022-09-09T11:46:31;100395.66;;;16.69;100.00
49645;BME280;36494;50.730;-1.932;2022-09-09T11:48:57;100395.35;;;16.70;100.00
49645;BME280;36494;50.730;-1.932;2022-09-09T11:53:49;100397.39;;;16.70;100.00
49645;BME280;36494;50.730;-1.932;2022-09-09T11:56:09;100400.00;;;16.78;100.00
49645;BME280;36494;50.730;-1.932;2022-09-09T11:58:36;100408.55;;;16.87;100.00
49645;BME280;36494;50.730;-1.932;2022-09-09T12:00:55;100407.24;;;16.72;100.00
49645;BME280;36494;50.730;-1.932;2022-09-09T12:03:35;100397.68;;;16.59;100.00
49645;BME280;36494;50.730;-1.932;2022-09-09T12:05:46;100403.39;;;16.65;100.00
49645;BME280;36494;50.730;-1.932;2022-09-09T12:08:15;100408.17;;;16.74;100.00
49645;BME280;36494;50.730;-1.932;2022-09-09T12:10:39;100410.42;;;16.74;100.00
49645;BME280;36494;50.730;-1.932;2022-09-09T12:13:09;100420.02;;;16.81;100.00
49645;BME280;36494;50.730;-1.932;2022-09-09T12:15:30;100424.00;;;16.90;100.00
49645;BME280;36494;50.730;-1.932;2022-09-09T12:17:53;100422.14;;;16.88;100.00
49645;BME280;36494;50.730;-1.932;2022-09-09T12:20:20;100421.55;;;16.92;100.00
49645;BME280;36494;50.730;-1.932;2022-09-09T12:22:56;100420.84;;;16.89;100.00
49645;BME280;36494;50.730;-1.932;2022-09-09T12:25:17;100419.58;;;16.92;100.00